sensor_id;sensor_type;location;lat;lon;timestamp;P1;durP1;ratioP1;P2;durP2;ratioP2
59569;SDS011;45393;44.646;10.900;2022-09-03T00:07:56;4.70;;;2.37;;
59569;SDS011;45393;44.646;10.900;2022-09-03T00:10:40;2.63;;;2.20;;
59569;SDS011;45393;44.646;10.900;2022-09-03T00:13:08;4.47;;;2.43;;
59569;SDS011;45393;44.646;10.900;2022-09-03T00:15:38;4.00;;;2.40;;
59569;SDS011;45393;44.646;10.900;2022-09-03T00:18:08;3.33;;;2.30;;
59569;SDS011;45393;44.646;10.900;2022-09-03T00:20:41;5.80;;;2.77;;
59569;SDS011;45393;44.646;10.900;2022-09-03T00:23:15;6.20;;;2.50;;
59569;SDS011;45393;44.646;10.900;2022-09-03T00:28:12;3.87;;;2.40;;
59569;SDS011;45393;44.646;10.900;2022-09-03T00:30:39;4.50;;;2.37;;
59569;SDS011;45393;44.646;10.900;2022-09-03T00:33:08;4.50;;;2.87;;
59569;SDS011;45393;44.646;10.900;2022-09-03T00:35:43;4.40;;;2.67;;
59569;SDS011;45393;44.646;10.900;2022-09-03T00:38:11;3.90;;;2.67;;
59569;SDS011;45393;44.646;10.900;2022-09-03T00:43:29;4.40;;;2.30;;
59569;SDS011;45393;44.646;10.900;2022-09-03T00:48:51;4.73;;;2.60;;
59569;SDS011;45393;44.646;10.900;2022-09-03T00:57:03;3.57;;;2.80;;
59569;SDS011;45393;44.646;10.900;2022-09-03T01:01:45;4.90;;;2.73;;
59569;SDS011;45393;44.646;10.900;2022-09-03T01:12:14;6.40;;;3.43;;
59569;SDS011;45393;44.646;10.900;2022-09-03T01:14:59;3.30;;;3.00;;
59569;SDS011;45393;44.646;10.900;2022-09-03T01:20:15;6.57;;;3.30;;
59569;SDS011;45393;44.646;10.900;2022-09-03T01:30:26;4.80;;;3.23;;
59569;SDS011;45393;44.646;10.900;2022-09-03T01:33:01;6.50;;;3.20;;
59569;SDS011;45393;44.646;10.900;2022-09-03T01:38:58;6.00;;;3.10;;
59569;SDS011;45393;44.646;10.900;2022-09-03T01:41:05;4.83;;;3.37;;
59569;SDS011;45393;44.646;10.900;2022-09-03T01:46:22;4.67;;;3.30;;
59569;SDS011;45393;44.646;10.900;2022-09-03T01:51:18;6.60;;;3.30;;
59569;SDS011;45393;44.646;10.900;2022-09-03T02:01:52;3.90;;;3.40;;
59569;SDS011;45393;44.646;10.900;2022-09-03T02:04:22;5.87;;;3.63;;
59569;SDS011;45393;44.646;10.900;2022-09-03T02:06:49;3.90;;;3.50;;
59569;SDS011;45393;44.646;10.900;2022-09-03T02:09:16;6.30;;;3.87;;
59569;SDS011;45393;44.646;10.900;2022-09-03T02:11:43;5.03;;;4.50;;
59569;SDS011;45393;44.646;10.900;2022-09-03T02:14:10;8.47;;;4.93;;
59569;SDS011;45393;44.646;10.900;2022-09-03T02:16:37;5.73;;;4.90;;
59569;SDS011;45393;44.646;10.900;2022-09-03T02:19:04;10.53;;;6.47;;
59569;SDS011;45393;44.646;10.900;2022-09-03T02:21:33;7.27;;;4.60;;
59569;SDS011;45393;44.646;10.900;2022-09-03T02:24:01;8.23;;;4.50;;
59569;SDS011;45393;44.646;10.900;2022-09-03T02:26:28;6.33;;;3.80;;
59569;SDS011;45393;44.646;10.900;2022-09-03T02:28:54;5.83;;;4.47;;
59569;SDS011;45393;44.646;10.900;2022-09-03T02:31:20;7.63;;;5.27;;
59569;SDS011;45393;44.646;10.900;2022-09-03T02:33:47;6.83;;;6.13;;
59569;SDS011;45393;44.646;10.900;2022-09-03T02:36:14;8.07;;;7.20;;
59569;SDS011;45393;44.646;10.900;2022-09-03T02:38:41;9.67;;;6.03;;
59569;SDS011;45393;44.646;10.900;2022-09-03T02:41:07;7.80;;;4.67;;
59569;SDS011;45393;44.646;10.900;2022-09-03T02:43:38;6.03;;;5.13;;
59569;SDS011;45393;44.646;10.900;2022-09-03T02:46:06;6.80;;;4.90;;
59569;SDS011;45393;44.646;10.900;2022-09-03T02:48:33;6.27;;;5.10;;
59569;SDS011;45393;44.646;10.900;2022-09-03T02:51:00;6.40;;;5.73;;
59569;SDS011;45393;44.646;10.900;2022-09-03T02:53:26;5.77;;;5.03;;
59569;SDS011;45393;44.646;10.900;2022-09-03T02:55:56;8.20;;;5.83;;
59569;SDS011;45393;44.646;10.900;2022-09-03T02:58:22;5.97;;;5.30;;
59569;SDS011;45393;44.646;10.900;2022-09-03T03:00:49;6.20;;;5.10;;
59569;SDS011;45393;44.646;10.900;2022-09-03T03:03:15;6.97;;;5.17;;
59569;SDS011;45393;44.646;10.900;2022-09-03T03:08:07;5.43;;;4.80;;
59569;SDS011;45393;44.646;10.900;2022-09-03T03:10:33;6.10;;;5.47;;
59569;SDS011;45393;44.646;10.900;2022-09-03T03:12:59;5.70;;;4.60;;
59569;SDS011;45393;44.646;10.900;2022-09-03T03:15:25;7.33;;;5.20;;
59569;SDS011;45393;44.646;10.900;2022-09-03T03:17:54;7.13;;;5.80;;
59569;SDS011;45393;44.646;10.900;2022-09-03T03:20:21;7.90;;;5.47;;
59569;SDS011;45393;44.646;10.900;2022-09-03T03:22:47;5.87;;;4.93;;
59569;SDS011;45393;44.646;10.900;2022-09-03T03:25:13;10.23;;;6.73;;
59569;SDS011;45393;44.646;10.900;2022-09-03T03:27:39;5.90;;;5.30;;
59569;SDS011;45393;44.646;10.900;2022-09-03T03:30:06;10.00;;;5.97;;
59569;SDS011;45393;44.646;10.900;2022-09-03T03:32:34;7.67;;;6.00;;
59569;SDS011;45393;44.646;10.900;2022-09-03T03:35:00;7.70;;;5.60;;
59569;SDS011;45393;44.646;10.900;2022-09-03T03:37:26;9.73;;;6.33;;
59569;SDS011;45393;44.646;10.900;2022-09-03T03:39:52;6.97;;;6.27;;
59569;SDS011;45393;44.646;10.900;2022-09-03T03:42:18;8.30;;;6.67;;
59569;SDS011;45393;44.646;10.900;2022-09-03T03:44:44;10.53;;;7.57;;
59569;SDS011;45393;44.646;10.900;2022-09-03T03:47:10;12.80;;;7.87;;
59569;SDS011;45393;44.646;10.900;2022-09-03T03:49:36;9.10;;;8.10;;
59569;SDS011;45393;44.646;10.900;2022-09-03T03:52:03;10.13;;;8.30;;
59569;SDS011;45393;44.646;10.900;2022-09-03T03:54:29;9.53;;;8.53;;
59569;SDS011;45393;44.646;10.900;2022-09-03T03:56:55;10.80;;;9.00;;
59569;SDS011;45393;44.646;10.900;2022-09-03T03:59:21;14.23;;;8.97;;
59569;SDS011;45393;44.646;10.900;2022-09-03T04:01:47;19.60;;;10.50;;
59569;SDS011;45393;44.646;10.900;2022-09-03T04:04:14;16.63;;;9.73;;
59569;SDS011;45393;44.646;10.900;2022-09-03T04:06:41;19.97;;;11.40;;
59569;SDS011;45393;44.646;10.900;2022-09-03T04:09:07;24.47;;;10.77;;
59569;SDS011;45393;44.646;10.900;2022-09-03T04:11:33;14.63;;;9.57;;
59569;SDS011;45393;44.646;10.900;2022-09-03T04:14:01;17.10;;;10.67;;
59569;SDS011;45393;44.646;10.900;2022-09-03T04:16:27;26.13;;;12.30;;
59569;SDS011;45393;44.646;10.900;2022-09-03T04:18:54;12.07;;;9.47;;
59569;SDS011;45393;44.646;10.900;2022-09-03T04:21:29;27.73;;;10.70;;
59569;SDS011;45393;44.646;10.900;2022-09-03T04:23:56;16.67;;;9.77;;
59569;SDS011;45393;44.646;10.900;2022-09-03T04:26:24;13.87;;;9.33;;
59569;SDS011;45393;44.646;10.900;2022-09-03T04:28:51;11.70;;;8.87;;
59569;SDS011;45393;44.646;10.900;2022-09-03T04:31:18;10.10;;;8.13;;
59569;SDS011;45393;44.646;10.900;2022-09-03T04:33:45;10.00;;;8.50;;
59569;SDS011;45393;44.646;10.900;2022-09-03T04:36:15;10.27;;;8.83;;
59569;SDS011;45393;44.646;10.900;2022-09-03T04:38:41;11.03;;;8.63;;
59569;SDS011;45393;44.646;10.900;2022-09-03T04:41:09;9.23;;;8.33;;
59569;SDS011;45393;44.646;10.900;2022-09-03T04:43:35;10.97;;;8.37;;
59569;SDS011;45393;44.646;10.900;2022-09-03T04:46:02;9.27;;;8.33;;
59569;SDS011;45393;44.646;10.900;2022-09-03T04:48:29;9.23;;;8.20;;
59569;SDS011;45393;44.646;10.900;2022-09-03T04:51:17;10.77;;;8.80;;
59569;SDS011;45393;44.646;10.900;2022-09-03T04:53:42;9.10;;;8.20;;
59569;SDS011;45393;44.646;10.900;2022-09-03T04:56:19;7.97;;;7.17;;
59569;SDS011;45393;44.646;10.900;2022-09-03T04:58:46;8.70;;;7.63;;
59569;SDS011;45393;44.646;10.900;2022-09-03T05:01:16;10.33;;;7.87;;
59569;SDS011;45393;44.646;10.900;2022-09-03T05:03:43;11.07;;;7.83;;
59569;SDS011;45393;44.646;10.900;2022-09-03T05:06:09;9.43;;;7.73;;
59569;SDS011;45393;44.646;10.900;2022-09-03T05:08:36;8.03;;;7.23;;
59569;SDS011;45393;44.646;10.900;2022-09-03T05:11:03;9.20;;;7.60;;
59569;SDS011;45393;44.646;10.900;2022-09-03T05:13:29;10.57;;;7.47;;
59569;SDS011;45393;44.646;10.900;2022-09-03T05:15:59;10.03;;;7.00;;
59569;SDS011;45393;44.646;10.900;2022-09-03T05:18:26;7.97;;;6.33;;
59569;SDS011;45393;44.646;10.900;2022-09-03T05:20:58;9.27;;;7.20;;
59569;SDS011;45393;44.646;10.900;2022-09-03T05:23:25;10.47;;;7.87;;
59569;SDS011;45393;44.646;10.900;2022-09-03T05:25:55;10.93;;;7.60;;
59569;SDS011;45393;44.646;10.900;2022-09-03T05:28:22;8.00;;;7.20;;
59569;SDS011;45393;44.646;10.900;2022-09-03T05:30:56;8.67;;;7.53;;
59569;SDS011;45393;44.646;10.900;2022-09-03T05:33:23;10.67;;;6.80;;
59569;SDS011;45393;44.646;10.900;2022-09-03T05:35:49;8.00;;;7.10;;
59569;SDS011;45393;44.646;10.900;2022-09-03T05:38:15;8.13;;;7.33;;
59569;SDS011;45393;44.646;10.900;2022-09-03T05:40:42;9.40;;;7.17;;
59569;SDS011;45393;44.646;10.900;2022-09-03T05:43:08;8.90;;;7.63;;
59569;SDS011;45393;44.646;10.900;2022-09-03T05:45:34;8.57;;;7.03;;
59569;SDS011;45393;44.646;10.900;2022-09-03T05:48:01;9.07;;;8.10;;
59569;SDS011;45393;44.646;10.900;2022-09-03T05:50:27;8.27;;;7.10;;
59569;SDS011;45393;44.646;10.900;2022-09-03T05:52:53;8.93;;;8.03;;
59569;SDS011;45393;44.646;10.900;2022-09-03T05:55:19;12.10;;;7.50;;
59569;SDS011;45393;44.646;10.900;2022-09-03T05:57:50;9.37;;;7.80;;
59569;SDS011;45393;44.646;10.900;2022-09-03T06:00:16;8.47;;;7.40;;
59569;SDS011;45393;44.646;10.900;2022-09-03T06:02:48;9.47;;;8.37;;
59569;SDS011;45393;44.646;10.900;2022-09-03T06:05:15;11.03;;;8.33;;
59569;SDS011;45393;44.646;10.900;2022-09-03T06:07:42;10.10;;;8.20;;
59569;SDS011;45393;44.646;10.900;2022-09-03T06:10:09;8.50;;;7.60;;
59569;SDS011;45393;44.646;10.900;2022-09-03T06:12:36;9.97;;;7.23;;
59569;SDS011;45393;44.646;10.900;2022-09-03T06:15:03;8.43;;;7.53;;
59569;SDS011;45393;44.646;10.900;2022-09-03T06:17:30;9.30;;;8.30;;
59569;SDS011;45393;44.646;10.900;2022-09-03T06:19:56;11.07;;;8.10;;
59569;SDS011;45393;44.646;10.900;2022-09-03T06:22:22;11.27;;;8.30;;
59569;SDS011;45393;44.646;10.900;2022-09-03T06:24:49;8.27;;;7.47;;
59569;SDS011;45393;44.646;10.900;2022-09-03T06:27:15;10.07;;;7.90;;
59569;SDS011;45393;44.646;10.900;2022-09-03T06:29:41;8.33;;;7.50;;
59569;SDS011;45393;44.646;10.900;2022-09-03T06:32:08;9.17;;;7.27;;
59569;SDS011;45393;44.646;10.900;2022-09-03T06:34:34;9.77;;;6.80;;
59569;SDS011;45393;44.646;10.900;2022-09-03T06:37:00;10.43;;;7.13;;
59569;SDS011;45393;44.646;10.900;2022-09-03T06:39:26;12.47;;;7.20;;
59569;SDS011;45393;44.646;10.900;2022-09-03T06:41:53;8.57;;;7.00;;
59569;SDS011;45393;44.646;10.900;2022-09-03T06:44:19;8.13;;;7.30;;
59569;SDS011;45393;44.646;10.900;2022-09-03T06:46:45;7.50;;;6.63;;
59569;SDS011;45393;44.646;10.900;2022-09-03T06:49:12;7.80;;;6.30;;
59569;SDS011;45393;44.646;10.900;2022-09-03T06:51:39;7.33;;;6.60;;
59569;SDS011;45393;44.646;10.900;2022-09-03T06:54:07;10.47;;;6.63;;
59569;SDS011;45393;44.646;10.900;2022-09-03T06:56:34;9.03;;;6.93;;
59569;SDS011;45393;44.646;10.900;2022-09-03T06:59:19;8.57;;;7.23;;
59569;SDS011;45393;44.646;10.900;2022-09-03T07:01:45;8.13;;;6.90;;
59569;SDS011;45393;44.646;10.900;2022-09-03T07:04:12;9.73;;;6.23;;
59569;SDS011;45393;44.646;10.900;2022-09-03T07:06:40;7.70;;;6.30;;
59569;SDS011;45393;44.646;10.900;2022-09-03T07:09:07;8.80;;;5.57;;
59569;SDS011;45393;44.646;10.900;2022-09-03T07:11:33;8.03;;;5.30;;
59569;SDS011;45393;44.646;10.900;2022-09-03T07:14:00;7.67;;;6.40;;
59569;SDS011;45393;44.646;10.900;2022-09-03T07:16:28;6.40;;;5.70;;
59569;SDS011;45393;44.646;10.900;2022-09-03T07:18:54;8.40;;;5.87;;
59569;SDS011;45393;44.646;10.900;2022-09-03T07:21:24;6.83;;;5.90;;
59569;SDS011;45393;44.646;10.900;2022-09-03T07:23:51;10.13;;;6.30;;
59569;SDS011;45393;44.646;10.900;2022-09-03T07:26:18;7.33;;;5.90;;
59569;SDS011;45393;44.646;10.900;2022-09-03T07:28:45;12.13;;;6.33;;
59569;SDS011;45393;44.646;10.900;2022-09-03T07:31:18;9.80;;;6.40;;
59569;SDS011;45393;44.646;10.900;2022-09-03T07:33:45;8.50;;;7.37;;
59569;SDS011;45393;44.646;10.900;2022-09-03T07:36:13;8.77;;;6.90;;
59569;SDS011;45393;44.646;10.900;2022-09-03T07:38:40;11.87;;;7.77;;
59569;SDS011;45393;44.646;10.900;2022-09-03T07:41:08;8.33;;;6.93;;
59569;SDS011;45393;44.646;10.900;2022-09-03T07:43:35;10.07;;;6.50;;
59569;SDS011;45393;44.646;10.900;2022-09-03T07:46:02;7.57;;;6.63;;
59569;SDS011;45393;44.646;10.900;2022-09-03T07:48:28;10.07;;;6.57;;
59569;SDS011;45393;44.646;10.900;2022-09-03T07:50:57;9.23;;;7.13;;
59569;SDS011;45393;44.646;10.900;2022-09-03T07:53:25;10.27;;;7.27;;
59569;SDS011;45393;44.646;10.900;2022-09-03T07:55:52;10.60;;;7.30;;
59569;SDS011;45393;44.646;10.900;2022-09-03T07:58:18;7.30;;;6.60;;
59569;SDS011;45393;44.646;10.900;2022-09-03T08:00:47;9.67;;;7.17;;
59569;SDS011;45393;44.646;10.900;2022-09-03T08:03:13;6.63;;;6.03;;
59569;SDS011;45393;44.646;10.900;2022-09-03T08:05:40;7.90;;;6.10;;
59569;SDS011;45393;44.646;10.900;2022-09-03T08:08:06;7.67;;;5.60;;
59569;SDS011;45393;44.646;10.900;2022-09-03T08:10:33;8.53;;;6.03;;
59569;SDS011;45393;44.646;10.900;2022-09-03T08:13:00;6.23;;;5.63;;
59569;SDS011;45393;44.646;10.900;2022-09-03T08:15:29;8.73;;;5.80;;
59569;SDS011;45393;44.646;10.900;2022-09-03T08:17:55;6.37;;;5.40;;
59569;SDS011;45393;44.646;10.900;2022-09-03T08:20:23;6.73;;;4.97;;
59569;SDS011;45393;44.646;10.900;2022-09-03T08:22:49;9.10;;;4.30;;
59569;SDS011;45393;44.646;10.900;2022-09-03T08:25:15;7.27;;;5.23;;
59569;SDS011;45393;44.646;10.900;2022-09-03T08:27:41;8.87;;;5.60;;
59569;SDS011;45393;44.646;10.900;2022-09-03T08:30:07;7.23;;;5.13;;
59569;SDS011;45393;44.646;10.900;2022-09-03T08:32:36;9.33;;;5.07;;
59569;SDS011;45393;44.646;10.900;2022-09-03T08:35:02;7.17;;;5.37;;
59569;SDS011;45393;44.646;10.900;2022-09-03T08:37:29;6.73;;;4.80;;
59569;SDS011;45393;44.646;10.900;2022-09-03T08:39:56;7.50;;;4.63;;
59569;SDS011;45393;44.646;10.900;2022-09-03T08:44:54;6.77;;;4.60;;
59569;SDS011;45393;44.646;10.900;2022-09-03T08:49:58;4.83;;;4.33;;
59569;SDS011;45393;44.646;10.900;2022-09-03T08:52:45;6.87;;;4.13;;
59569;SDS011;45393;44.646;10.900;2022-09-03T08:57:55;4.43;;;3.80;;
59569;SDS011;45393;44.646;10.900;2022-09-03T09:00:22;4.30;;;3.80;;
59569;SDS011;45393;44.646;10.900;2022-09-03T09:02:52;4.13;;;3.60;;
59569;SDS011;45393;44.646;10.900;2022-09-03T09:05:22;4.03;;;3.60;;
59569;SDS011;45393;44.646;10.900;2022-09-03T09:07:54;6.83;;;3.43;;
59569;SDS011;45393;44.646;10.900;2022-09-03T09:10:33;4.03;;;3.63;;
59569;SDS011;45393;44.646;10.900;2022-09-03T09:13:13;5.23;;;3.80;;
59569;SDS011;45393;44.646;10.900;2022-09-03T09:18:32;7.53;;;4.10;;
59569;SDS011;45393;44.646;10.900;2022-09-03T09:23:46;7.83;;;5.17;;
59569;SDS011;45393;44.646;10.900;2022-09-03T09:26:14;6.33;;;4.67;;
59569;SDS011;45393;44.646;10.900;2022-09-03T09:28:41;5.70;;;4.67;;
59569;SDS011;45393;44.646;10.900;2022-09-03T09:31:09;6.03;;;5.00;;
59569;SDS011;45393;44.646;10.900;2022-09-03T09:33:36;7.43;;;5.80;;
59569;SDS011;45393;44.646;10.900;2022-09-03T09:36:15;6.00;;;5.40;;
59569;SDS011;45393;44.646;10.900;2022-09-03T09:38:43;9.03;;;6.27;;
59569;SDS011;45393;44.646;10.900;2022-09-03T09:41:14;10.00;;;5.80;;
59569;SDS011;45393;44.646;10.900;2022-09-03T09:43:41;8.83;;;5.53;;
59569;SDS011;45393;44.646;10.900;2022-09-03T09:46:19;7.63;;;5.73;;
59569;SDS011;45393;44.646;10.900;2022-09-03T09:51:20;6.87;;;5.33;;
59569;SDS011;45393;44.646;10.900;2022-09-03T09:53:47;9.43;;;5.90;;
59569;SDS011;45393;44.646;10.900;2022-09-03T09:56:24;8.80;;;5.53;;
59569;SDS011;45393;44.646;10.900;2022-09-03T09:59:00;7.07;;;5.30;;
59569;SDS011;45393;44.646;10.900;2022-09-03T10:01:27;8.13;;;4.87;;
59569;SDS011;45393;44.646;10.900;2022-09-03T10:03:56;6.00;;;4.63;;
59569;SDS011;45393;44.646;10.900;2022-09-03T10:06:23;6.80;;;4.30;;
59569;SDS011;45393;44.646;10.900;2022-09-03T10:11:36;6.17;;;4.20;;
59569;SDS011;45393;44.646;10.900;2022-09-03T10:14:04;6.40;;;4.00;;
59569;SDS011;45393;44.646;10.900;2022-09-03T10:16:34;5.77;;;4.10;;
59569;SDS011;45393;44.646;10.900;2022-09-03T10:21:34;7.10;;;3.50;;
59569;SDS011;45393;44.646;10.900;2022-09-03T10:26:45;7.30;;;3.70;;
59569;SDS011;45393;44.646;10.900;2022-09-03T10:29:15;7.27;;;3.53;;
59569;SDS011;45393;44.646;10.900;2022-09-03T10:32:02;6.90;;;3.80;;
59569;SDS011;45393;44.646;10.900;2022-09-03T10:34:37;9.17;;;4.73;;
59569;SDS011;45393;44.646;10.900;2022-09-03T10:42:17;6.30;;;3.80;;
59569;SDS011;45393;44.646;10.900;2022-09-03T10:45:03;6.97;;;3.63;;
59569;SDS011;45393;44.646;10.900;2022-09-03T11:02:41;7.73;;;4.03;;
59569;SDS011;45393;44.646;10.900;2022-09-03T11:05:22;5.90;;;3.43;;
59569;SDS011;45393;44.646;10.900;2022-09-03T11:10:25;8.90;;;4.27;;
59569;SDS011;45393;44.646;10.900;2022-09-03T11:18:26;5.73;;;3.80;;
59569;SDS011;45393;44.646;10.900;2022-09-03T11:20:55;4.10;;;3.53;;
59569;SDS011;45393;44.646;10.900;2022-09-03T11:23:26;6.90;;;4.27;;
59569;SDS011;45393;44.646;10.900;2022-09-03T11:25:56;4.23;;;3.60;;
59569;SDS011;45393;44.646;10.900;2022-09-03T11:33:26;4.67;;;3.47;;
59569;SDS011;45393;44.646;10.900;2022-09-03T11:35:54;8.43;;;3.70;;
59569;SDS011;45393;44.646;10.900;2022-09-03T11:38:21;7.57;;;3.93;;
59569;SDS011;45393;44.646;10.900;2022-09-03T11:40:59;5.87;;;3.77;;
59569;SDS011;45393;44.646;10.900;2022-09-03T11:43:30;6.73;;;3.60;;
59569;SDS011;45393;44.646;10.900;2022-09-03T11:46:04;5.37;;;3.10;;
59569;SDS011;45393;44.646;10.900;2022-09-03T11:48:37;4.77;;;2.97;;
59569;SDS011;45393;44.646;10.900;2022-09-03T11:51:04;4.87;;;3.00;;
59569;SDS011;45393;44.646;10.900;2022-09-03T11:53:52;4.20;;;2.60;;
59569;SDS011;45393;44.646;10.900;2022-09-03T11:56:18;7.00;;;3.57;;
59569;SDS011;45393;44.646;10.900;2022-09-03T11:58:44;4.63;;;2.60;;
59569;SDS011;45393;44.646;10.900;2022-09-03T12:01:12;5.63;;;3.47;;
59569;SDS011;45393;44.646;10.900;2022-09-03T12:14:03;5.50;;;3.20;;
59569;SDS011;45393;44.646;10.900;2022-09-03T12:16:40;6.30;;;2.97;;
59569;SDS011;45393;44.646;10.900;2022-09-03T12:21:47;3.97;;;2.90;;
59569;SDS011;45393;44.646;10.900;2022-09-03T12:24:14;5.97;;;3.20;;
59569;SDS011;45393;44.646;10.900;2022-09-03T12:26:41;4.37;;;3.33;;
59569;SDS011;45393;44.646;10.900;2022-09-03T12:32:05;6.07;;;2.90;;
59569;SDS011;45393;44.646;10.900;2022-09-03T12:34:32;6.17;;;3.13;;
59569;SDS011;45393;44.646;10.900;2022-09-03T12:36:58;5.13;;;3.13;;
59569;SDS011;45393;44.646;10.900;2022-09-03T12:39:24;3.50;;;3.10;;
59569;SDS011;45393;44.646;10.900;2022-09-03T12:44:24;3.73;;;3.20;;
59569;SDS011;45393;44.646;10.900;2022-09-03T12:47:26;5.00;;;3.30;;
59569;SDS011;45393;44.646;10.900;2022-09-03T12:49:46;7.70;;;3.77;;
59569;SDS011;45393;44.646;10.900;2022-09-03T12:52:15;3.53;;;3.00;;
59569;SDS011;45393;44.646;10.900;2022-09-03T12:55:05;4.17;;;2.97;;
59569;SDS011;45393;44.646;10.900;2022-09-03T13:00:01;5.37;;;3.23;;
59569;SDS011;45393;44.646;10.900;2022-09-03T13:02:33;6.03;;;2.90;;
59569;SDS011;45393;44.646;10.900;2022-09-03T13:05:02;4.53;;;2.80;;
59569;SDS011;45393;44.646;10.900;2022-09-03T13:07:30;3.47;;;2.70;;
59569;SDS011;45393;44.646;10.900;2022-09-03T13:10:02;3.90;;;2.70;;
59569;SDS011;45393;44.646;10.900;2022-09-03T13:12:34;3.77;;;2.60;;
59569;SDS011;45393;44.646;10.900;2022-09-03T13:15:08;5.87;;;3.23;;
59569;SDS011;45393;44.646;10.900;2022-09-03T13:17:46;7.50;;;2.93;;
59569;SDS011;45393;44.646;10.900;2022-09-03T13:20:20;3.13;;;2.83;;
59569;SDS011;45393;44.646;10.900;2022-09-03T13:25:25;5.00;;;2.70;;
59569;SDS011;45393;44.646;10.900;2022-09-03T13:30:22;5.97;;;3.20;;
59569;SDS011;45393;44.646;10.900;2022-09-03T13:32:56;3.80;;;2.80;;
59569;SDS011;45393;44.646;10.900;2022-09-03T13:38:08;8.97;;;2.93;;
59569;SDS011;45393;44.646;10.900;2022-09-03T13:40:51;3.20;;;2.80;;
59569;SDS011;45393;44.646;10.900;2022-09-03T13:51:27;3.70;;;2.87;;
59569;SDS011;45393;44.646;10.900;2022-09-03T13:54:06;4.00;;;2.90;;
59569;SDS011;45393;44.646;10.900;2022-09-03T13:59:30;4.13;;;3.20;;
59569;SDS011;45393;44.646;10.900;2022-09-03T14:07:13;5.70;;;3.07;;
59569;SDS011;45393;44.646;10.900;2022-09-03T14:12:30;4.23;;;2.97;;
59569;SDS011;45393;44.646;10.900;2022-09-03T14:20:18;4.47;;;2.80;;
59569;SDS011;45393;44.646;10.900;2022-09-03T14:22:50;3.30;;;2.73;;
59569;SDS011;45393;44.646;10.900;2022-09-03T14:25:21;5.97;;;2.83;;
59569;SDS011;45393;44.646;10.900;2022-09-03T14:27:48;3.93;;;2.90;;
59569;SDS011;45393;44.646;10.900;2022-09-03T14:40:21;3.70;;;2.87;;
59569;SDS011;45393;44.646;10.900;2022-09-03T14:48:06;4.27;;;2.83;;
59569;SDS011;45393;44.646;10.900;2022-09-03T14:53:29;7.90;;;3.20;;
59569;SDS011;45393;44.646;10.900;2022-09-03T15:01:35;4.53;;;3.07;;
59569;SDS011;45393;44.646;10.900;2022-09-03T15:12:21;5.33;;;2.90;;
59569;SDS011;45393;44.646;10.900;2022-09-03T15:17:06;4.27;;;3.10;;
59569;SDS011;45393;44.646;10.900;2022-09-03T15:22:18;3.60;;;3.00;;
59569;SDS011;45393;44.646;10.900;2022-09-03T15:24:57;4.60;;;3.10;;
59569;SDS011;45393;44.646;10.900;2022-09-03T15:35:12;5.97;;;2.90;;
59569;SDS011;45393;44.646;10.900;2022-09-03T15:37:43;6.87;;;3.27;;
59569;SDS011;45393;44.646;10.900;2022-09-03T15:43:37;4.10;;;3.20;;
59569;SDS011;45393;44.646;10.900;2022-09-03T15:59:02;6.33;;;3.23;;
59569;SDS011;45393;44.646;10.900;2022-09-03T16:06:52;5.50;;;3.40;;
59569;SDS011;45393;44.646;10.900;2022-09-03T16:09:29;5.67;;;3.20;;
59569;SDS011;45393;44.646;10.900;2022-09-03T16:12:09;3.13;;;2.83;;
59569;SDS011;45393;44.646;10.900;2022-09-03T16:22:37;6.33;;;4.13;;
59569;SDS011;45393;44.646;10.900;2022-09-03T16:25:07;9.67;;;4.00;;
59569;SDS011;45393;44.646;10.900;2022-09-03T16:49:19;10.77;;;4.90;;
59569;SDS011;45393;44.646;10.900;2022-09-03T16:53:51;5.07;;;4.30;;
59569;SDS011;45393;44.646;10.900;2022-09-03T17:17:22;10.33;;;5.00;;
59569;SDS011;45393;44.646;10.900;2022-09-03T17:22:42;7.37;;;5.07;;
59569;SDS011;45393;44.646;10.900;2022-09-03T17:25:47;6.10;;;4.70;;
59569;SDS011;45393;44.646;10.900;2022-09-03T17:28:08;11.03;;;7.07;;
59569;SDS011;45393;44.646;10.900;2022-09-03T17:35:57;6.03;;;4.20;;
59569;SDS011;45393;44.646;10.900;2022-09-03T17:43:57;5.13;;;4.60;;
59569;SDS011;45393;44.646;10.900;2022-09-03T17:46:38;8.93;;;4.97;;
59569;SDS011;45393;44.646;10.900;2022-09-03T17:49:05;8.47;;;4.30;;
59569;SDS011;45393;44.646;10.900;2022-09-03T17:51:40;6.83;;;4.63;;
59569;SDS011;45393;44.646;10.900;2022-09-03T18:00:20;8.20;;;4.90;;
59569;SDS011;45393;44.646;10.900;2022-09-03T18:02:44;8.00;;;4.93;;
59569;SDS011;45393;44.646;10.900;2022-09-03T18:10:22;10.83;;;8.50;;
59569;SDS011;45393;44.646;10.900;2022-09-03T18:12:56;10.13;;;7.40;;
59569;SDS011;45393;44.646;10.900;2022-09-03T18:15:25;8.87;;;6.77;;
59569;SDS011;45393;44.646;10.900;2022-09-03T18:18:09;9.17;;;5.50;;
59569;SDS011;45393;44.646;10.900;2022-09-03T18:20:41;10.63;;;6.33;;
59569;SDS011;45393;44.646;10.900;2022-09-03T18:23:30;8.07;;;5.47;;
59569;SDS011;45393;44.646;10.900;2022-09-03T18:26:36;12.07;;;5.47;;
59569;SDS011;45393;44.646;10.900;2022-09-03T18:29:33;7.03;;;5.67;;
59569;SDS011;45393;44.646;10.900;2022-09-03T18:32:19;7.17;;;6.10;;
59569;SDS011;45393;44.646;10.900;2022-09-03T18:35:06;12.97;;;6.40;;
59569;SDS011;45393;44.646;10.900;2022-09-03T18:37:51;7.93;;;5.97;;
59569;SDS011;45393;44.646;10.900;2022-09-03T18:40:53;10.20;;;6.63;;
59569;SDS011;45393;44.646;10.900;2022-09-03T18:44:05;10.97;;;8.50;;
59569;SDS011;45393;44.646;10.900;2022-09-03T18:58:22;9.43;;;7.67;;
59569;SDS011;45393;44.646;10.900;2022-09-03T19:01:14;8.23;;;6.70;;
59569;SDS011;45393;44.646;10.900;2022-09-03T19:04:12;13.57;;;6.20;;
59569;SDS011;45393;44.646;10.900;2022-09-03T19:09:54;11.77;;;8.80;;
59569;SDS011;45393;44.646;10.900;2022-09-03T19:15:40;11.03;;;7.10;;
59569;SDS011;45393;44.646;10.900;2022-09-03T19:21:32;10.13;;;9.07;;
59569;SDS011;45393;44.646;10.900;2022-09-03T19:24:19;11.70;;;10.40;;
59569;SDS011;45393;44.646;10.900;2022-09-03T19:27:08;13.23;;;11.83;;
59569;SDS011;45393;44.646;10.900;2022-09-03T19:30:03;12.37;;;11.07;;
59569;SDS011;45393;44.646;10.900;2022-09-03T19:38:56;14.80;;;13.20;;
59569;SDS011;45393;44.646;10.900;2022-09-03T19:50:32;17.87;;;15.10;;
59569;SDS011;45393;44.646;10.900;2022-09-03T19:53:19;14.73;;;13.23;;
59569;SDS011;45393;44.646;10.900;2022-09-03T19:56:14;16.87;;;14.60;;
59569;SDS011;45393;44.646;10.900;2022-09-03T19:59:05;16.83;;;15.13;;
59569;SDS011;45393;44.646;10.900;2022-09-03T20:01:52;16.87;;;15.17;;
59569;SDS011;45393;44.646;10.900;2022-09-03T20:04:38;18.77;;;15.30;;
59569;SDS011;45393;44.646;10.900;2022-09-03T20:07:24;17.27;;;15.60;;
59569;SDS011;45393;44.646;10.900;2022-09-03T20:10:10;20.50;;;18.23;;
59569;SDS011;45393;44.646;10.900;2022-09-03T20:12:48;19.30;;;17.40;;
59569;SDS011;45393;44.646;10.900;2022-09-03T20:15:15;18.43;;;16.57;;
59569;SDS011;45393;44.646;10.900;2022-09-03T20:29:17;15.87;;;13.57;;
59569;SDS011;45393;44.646;10.900;2022-09-03T20:31:40;22.80;;;20.33;;
59569;SDS011;45393;44.646;10.900;2022-09-03T20:49:52;24.17;;;21.50;;
59569;SDS011;45393;44.646;10.900;2022-09-03T20:52:20;25.83;;;23.07;;
59569;SDS011;45393;44.646;10.900;2022-09-03T20:54:53;25.80;;;23.30;;
59569;SDS011;45393;44.646;10.900;2022-09-03T21:12:54;33.90;;;30.47;;
59569;SDS011;45393;44.646;10.900;2022-09-03T21:20:52;35.07;;;31.47;;
59569;SDS011;45393;44.646;10.900;2022-09-03T21:23:32;29.37;;;26.37;;
59569;SDS011;45393;44.646;10.900;2022-09-03T21:26:18;36.70;;;33.10;;
59569;SDS011;45393;44.646;10.900;2022-09-03T21:29:04;37.63;;;33.17;;
59569;SDS011;45393;44.646;10.900;2022-09-03T21:32:07;33.03;;;29.47;;